Terminal Aerodrome Forecast
Issued by NWS

Home | Current Version | Previous Version | Text Only | Print | Product List | Glossary On
Versions: 1 2 3 4 5 6 7 8 9 10 11 12 13 14
000
FTUS41 KCAR 011121
TAFPQI
TAF
KPQI 011121Z 0112/0212 31012G22KT P6SM SCT250
     FM012300 31009KT P6SM FEW250
     FM021000 33005KT P6SM SCT250
      AMD LTD TO CLD VIS AND WIND=

USA.gov is the U.S. government's official web portal to all federal, state and local government web resources and services.